createdAt,value
2022-08-25T00:00:15.976Z,22.30
2022-08-25T00:02:45.554Z,22.26
2022-08-25T00:05:22.506Z,22.23
2022-08-25T00:07:49.066Z,22.22
2022-08-25T00:10:15.557Z,22.19
2022-08-25T00:12:42.902Z,22.19
2022-08-25T00:15:09.848Z,22.17
2022-08-25T00:17:36.349Z,22.18
2022-08-25T00:20:05.131Z,22.22
2022-08-25T00:22:31.813Z,22.22
2022-08-25T00:24:58.347Z,22.19
2022-08-25T00:27:25.924Z,22.17
2022-08-25T00:29:52.468Z,22.17
2022-08-25T00:32:19.144Z,22.18
2022-08-25T00:34:46.093Z,22.17
2022-08-25T00:37:12.749Z,22.17
2022-08-25T00:39:39.886Z,22.15
2022-08-25T00:42:11.847Z,22.12
2022-08-25T00:44:44.116Z,22.10
2022-08-25T00:47:10.945Z,22.11
2022-08-25T00:49:42.452Z,22.08
2022-08-25T00:52:12.128Z,22.01
2022-08-25T00:54:54.715Z,21.99
2022-08-25T00:57:34.131Z,21.94
2022-08-25T01:00:05.061Z,21.92
2022-08-25T01:02:31.680Z,21.89
2022-08-25T01:04:58.830Z,21.86
2022-08-25T01:07:25.398Z,21.82
2022-08-25T01:09:52.754Z,21.79
2022-08-25T01:12:19.576Z,21.77
2022-08-25T01:14:47.528Z,21.74
2022-08-25T01:17:14.411Z,21.70
2022-08-25T01:19:41.064Z,21.66
2022-08-25T01:22:08.179Z,21.64
2022-08-25T01:24:47.840Z,21.60
2022-08-25T01:27:14.423Z,21.57
2022-08-25T01:29:41.078Z,21.54
2022-08-25T01:32:09.839Z,21.52
2022-08-25T01:34:38.826Z,21.49
2022-08-25T01:37:06.179Z,21.47
2022-08-25T01:39:34.038Z,21.44
2022-08-25T01:42:12.092Z,21.43
2022-08-25T01:44:41.983Z,21.43
2022-08-25T01:47:08.594Z,21.41
2022-08-25T01:49:35.169Z,21.39
2022-08-25T01:52:33.655Z,21.40
2022-08-25T01:55:00.282Z,21.39
2022-08-25T01:57:30.059Z,21.38
2022-08-25T01:59:56.601Z,21.36
2022-08-25T02:02:23.421Z,21.32
2022-08-25T02:04:52.882Z,21.30
2022-08-25T02:07:20.063Z,21.28
2022-08-25T02:09:47.335Z,21.28
2022-08-25T02:12:13.999Z,21.29
2022-08-25T02:14:40.783Z,21.29
2022-08-25T02:17:08.325Z,21.28
2022-08-25T02:19:34.981Z,21.27
2022-08-25T02:22:02.757Z,21.25
2022-08-25T02:24:31.461Z,21.22
2022-08-25T02:26:58.344Z,21.18
2022-08-25T02:29:25.355Z,21.16
2022-08-25T02:31:51.966Z,21.11
2022-08-25T02:34:18.922Z,21.11
2022-08-25T02:36:45.637Z,21.10
2022-08-25T02:39:12.375Z,21.13
2022-08-25T02:41:39.131Z,21.10
2022-08-25T02:46:32.728Z,21.07
2022-08-25T02:48:59.569Z,21.05
2022-08-25T02:51:30.002Z,21.03
2022-08-25T02:53:57.924Z,21.02
2022-08-25T02:56:25.796Z,21.02
2022-08-25T02:58:52.664Z,21.02
2022-08-25T03:01:19.522Z,21.00
2022-08-25T03:03:46.976Z,21.00
2022-08-25T03:06:15.845Z,20.97
2022-08-25T03:08:43.125Z,20.96
2022-08-25T03:11:10.427Z,20.97
2022-08-25T03:13:37.344Z,20.93
2022-08-25T03:16:09.814Z,20.91
2022-08-25T03:18:39.837Z,20.86
2022-08-25T03:21:07.447Z,20.86
2022-08-25T03:23:34.137Z,20.85
2022-08-25T03:26:20.912Z,20.84
2022-08-25T03:28:47.532Z,20.80
2022-08-25T03:31:14.047Z,20.79
2022-08-25T03:33:40.646Z,20.76
2022-08-25T03:36:08.607Z,20.73
2022-08-25T03:38:37.296Z,20.70
2022-08-25T03:41:13.837Z,20.68
2022-08-25T03:43:40.915Z,20.64
2022-08-25T03:46:07.639Z,20.60
2022-08-25T03:48:34.499Z,20.57
2022-08-25T03:51:01.035Z,20.53
2022-08-25T03:53:27.524Z,20.50
2022-08-25T03:55:54.208Z,20.47
2022-08-25T03:58:20.713Z,20.44
2022-08-25T04:00:47.270Z,20.40
2022-08-25T04:03:13.838Z,20.36
2022-08-25T04:05:41.039Z,20.35
2022-08-25T04:08:08.106Z,20.35
2022-08-25T04:10:35.151Z,20.35
2022-08-25T04:13:01.851Z,20.33
2022-08-25T04:15:30.243Z,20.33
2022-08-25T04:17:58.886Z,20.35
2022-08-25T04:20:25.647Z,20.34
2022-08-25T04:22:52.210Z,20.34
2022-08-25T04:25:18.715Z,20.34
2022-08-25T04:27:45.203Z,20.33
2022-08-25T04:30:12.400Z,20.34
2022-08-25T04:32:39.036Z,20.35
2022-08-25T04:35:05.989Z,20.38
2022-08-25T04:37:33.434Z,20.36
2022-08-25T04:40:00.157Z,20.37
2022-08-25T04:42:27.026Z,20.41
2022-08-25T04:44:54.410Z,20.48
2022-08-25T04:47:20.925Z,20.54
2022-08-25T04:49:47.832Z,20.60
2022-08-25T04:52:14.833Z,20.65
2022-08-25T04:54:42.192Z,20.72
2022-08-25T04:57:08.730Z,20.77
2022-08-25T04:59:35.285Z,20.79
2022-08-25T05:02:03.227Z,20.80
2022-08-25T05:04:31.093Z,20.82
2022-08-25T05:06:58.011Z,20.86
2022-08-25T05:09:25.491Z,20.91
2022-08-25T05:11:52.879Z,20.97
2022-08-25T05:14:22.643Z,21.03
2022-08-25T05:16:53.038Z,21.14
2022-08-25T05:19:19.652Z,21.20
2022-08-25T05:21:46.345Z,21.20
2022-08-25T05:24:12.922Z,21.33
2022-08-25T05:26:39.755Z,21.33
2022-08-25T05:29:06.888Z,21.40
2022-08-25T05:31:36.339Z,21.47
2022-08-25T05:34:06.805Z,21.51
2022-08-25T05:36:34.170Z,21.59
2022-08-25T05:39:01.141Z,21.65
2022-08-25T05:41:29.498Z,21.64
2022-08-25T05:43:56.706Z,21.68
2022-08-25T05:46:23.771Z,21.71
2022-08-25T05:48:50.569Z,21.65
2022-08-25T05:51:17.762Z,21.63
2022-08-25T05:53:46.769Z,21.55
2022-08-25T05:56:16.644Z,21.48
2022-08-25T05:58:43.573Z,21.47
2022-08-25T06:01:29.638Z,21.53
2022-08-25T06:03:56.289Z,21.57
2022-08-25T06:06:24.329Z,21.67
2022-08-25T06:08:51.631Z,21.69
2022-08-25T06:11:18.487Z,21.73
2022-08-25T06:13:45.594Z,21.78
2022-08-25T06:16:12.328Z,21.74
2022-08-25T06:18:38.989Z,21.78
2022-08-25T06:21:14.151Z,21.88
2022-08-25T06:23:41.001Z,21.90
2022-08-25T06:26:10.885Z,22.02
2022-08-25T06:28:41.039Z,22.12
2022-08-25T06:31:07.580Z,22.24
2022-08-25T06:33:34.298Z,22.35
2022-08-25T06:36:01.175Z,22.53
2022-08-25T06:38:27.835Z,22.69
2022-08-25T06:40:54.443Z,22.77
2022-08-25T06:43:21.502Z,22.85
2022-08-25T06:45:48.649Z,22.82
2022-08-25T06:48:15.554Z,22.73
2022-08-25T06:50:42.853Z,22.73
2022-08-25T06:53:09.472Z,22.77
2022-08-25T06:55:36.866Z,22.95
2022-08-25T06:58:04.861Z,22.93
2022-08-25T07:00:32.586Z,23.14
2022-08-25T07:03:01.181Z,23.31
2022-08-25T07:05:42.593Z,23.41
2022-08-25T07:08:11.789Z,23.54
2022-08-25T07:10:38.818Z,23.70
2022-08-25T07:13:05.358Z,23.84
2022-08-25T07:15:31.921Z,23.95
2022-08-25T07:17:58.457Z,24.16
2022-08-25T07:22:57.886Z,24.16
2022-08-25T07:25:24.546Z,24.19
2022-08-25T07:27:52.367Z,24.16
2022-08-25T07:30:20.537Z,24.36
2022-08-25T07:32:47.088Z,24.39
2022-08-25T07:35:24.226Z,24.51
2022-08-25T07:37:58.219Z,24.61
2022-08-25T07:40:34.020Z,24.66
2022-08-25T07:43:05.358Z,24.79
2022-08-25T07:45:35.351Z,24.93
2022-08-25T07:48:05.594Z,24.98
2022-08-25T07:50:32.865Z,24.95
2022-08-25T07:52:59.812Z,25.00
2022-08-25T07:55:28.156Z,25.19
2022-08-25T07:58:12.303Z,25.35
2022-08-25T08:00:39.514Z,25.43
2022-08-25T08:03:12.931Z,25.48
2022-08-25T08:05:50.719Z,25.78
2022-08-25T08:08:17.256Z,25.87
2022-08-25T08:11:04.036Z,26.05
2022-08-25T08:13:34.835Z,26.18
2022-08-25T08:16:09.531Z,26.24
2022-08-25T08:18:36.186Z,26.34
2022-08-25T08:21:02.699Z,26.39
2022-08-25T08:23:30.576Z,26.45
2022-08-25T08:25:57.193Z,26.68
2022-08-25T08:28:27.792Z,27.15
2022-08-25T08:30:54.391Z,27.86
2022-08-25T08:33:23.513Z,27.96
2022-08-25T08:36:06.230Z,28.58
2022-08-25T08:38:34.629Z,28.01
2022-08-25T08:42:09.676Z,27.95
2022-08-25T08:44:46.633Z,27.69
2022-08-25T08:47:20.460Z,27.63
2022-08-25T08:50:23.912Z,27.79
2022-08-25T08:52:56.111Z,28.07
2022-08-25T08:55:31.342Z,28.08
2022-08-25T08:58:00.226Z,27.51
2022-08-25T09:00:28.583Z,27.49
2022-08-25T09:03:12.445Z,27.48
2022-08-25T09:05:48.461Z,27.41
2022-08-25T09:08:20.272Z,27.42
2022-08-25T09:11:10.466Z,27.59
2022-08-25T09:13:55.328Z,27.96
2022-08-25T09:16:51.028Z,28.27
2022-08-25T09:19:53.192Z,29.29
2022-08-25T09:22:35.701Z,30.70
2022-08-25T09:25:34.598Z,31.13
2022-08-25T09:28:24.052Z,32.02
2022-08-25T09:30:56.669Z,32.57
2022-08-25T09:33:25.257Z,32.13
2022-08-25T09:35:53.609Z,32.62
2022-08-25T09:38:20.764Z,33.15
2022-08-25T09:40:56.085Z,33.36
2022-08-25T09:43:40.204Z,33.43
2022-08-25T09:46:12.950Z,33.75
2022-08-25T09:48:56.928Z,33.31
2022-08-25T09:51:28.637Z,33.20
2022-08-25T09:54:13.518Z,33.20
2022-08-25T09:56:52.653Z,33.88
2022-08-25T09:59:30.807Z,34.03
2022-08-25T10:02:26.002Z,34.12
2022-08-25T10:04:54.095Z,34.80
2022-08-25T10:07:38.449Z,34.48
2022-08-25T10:10:27.563Z,33.88
2022-08-25T10:13:01.172Z,34.16
2022-08-25T10:15:34.635Z,34.88
2022-08-25T10:18:25.630Z,34.26
2022-08-25T10:21:14.721Z,35.16
2022-08-25T10:23:55.865Z,35.41
2022-08-25T10:26:34.896Z,35.12
2022-08-25T10:29:22.279Z,35.22
2022-08-25T10:31:58.377Z,36.11
2022-08-25T10:34:46.241Z,35.89
2022-08-25T10:37:40.098Z,36.50
2022-08-25T10:40:25.588Z,36.75
2022-08-25T10:43:08.447Z,37.02
2022-08-25T10:45:49.607Z,36.06
2022-08-25T10:48:23.375Z,36.47
2022-08-25T10:50:58.455Z,35.60
2022-08-25T10:53:47.666Z,36.13
2022-08-25T10:56:37.073Z,36.45
2022-08-25T10:59:25.670Z,35.93
2022-08-25T11:02:08.261Z,34.72
2022-08-25T11:05:11.484Z,33.61
2022-08-25T11:07:41.928Z,33.36
2022-08-25T11:10:19.021Z,32.57
2022-08-25T11:12:50.790Z,32.23
2022-08-25T11:15:28.457Z,32.01
2022-08-25T11:18:02.685Z,31.88
2022-08-25T11:20:38.123Z,32.12
2022-08-25T11:23:15.347Z,32.01
2022-08-25T11:25:44.661Z,32.50
2022-08-25T11:28:33.586Z,33.22
2022-08-25T11:31:02.957Z,33.49
2022-08-25T11:33:32.043Z,33.24
2022-08-25T11:36:31.989Z,33.45
2022-08-25T11:39:04.428Z,34.16
2022-08-25T11:42:02.433Z,34.92
2022-08-25T11:44:58.109Z,35.81
2022-08-25T11:47:39.871Z,37.16
2022-08-25T11:50:30.226Z,37.05
2022-08-25T11:53:26.737Z,37.38
2022-08-25T11:55:58.813Z,37.36
2022-08-25T11:58:28.486Z,36.99
2022-08-25T12:00:59.670Z,37.44
2022-08-25T12:03:32.257Z,37.45
2022-08-25T12:06:23.406Z,38.29
2022-08-25T12:09:13.250Z,36.98
2022-08-25T12:12:05.608Z,37.67
2022-08-25T12:14:32.051Z,38.52
2022-08-25T12:17:06.333Z,38.83
2022-08-25T12:19:36.646Z,38.87
2022-08-25T12:22:04.632Z,38.93
2022-08-25T12:24:47.743Z,39.61
2022-08-25T12:27:40.075Z,39.63
2022-08-25T12:30:27.585Z,39.68
2022-08-25T12:33:03.237Z,39.94
2022-08-25T12:35:32.660Z,40.47
2022-08-25T12:38:06.094Z,40.10
2022-08-25T12:40:39.908Z,40.59
2022-08-25T12:43:14.157Z,40.42
2022-08-25T12:45:48.333Z,40.87
2022-08-25T12:48:27.219Z,41.26
2022-08-25T12:50:59.392Z,40.55
2022-08-25T12:53:25.819Z,40.69
2022-08-25T12:56:00.484Z,41.44
2022-08-25T12:58:58.841Z,41.62
2022-08-25T13:01:47.572Z,42.11
2022-08-25T13:04:50.124Z,41.38
2022-08-25T13:07:46.526Z,41.52
2022-08-25T13:10:54.479Z,41.82
2022-08-25T13:13:39.507Z,39.97
2022-08-25T13:16:09.486Z,39.21
2022-08-25T13:18:38.281Z,38.92
2022-08-25T13:21:15.333Z,37.55
2022-08-25T13:23:44.835Z,36.54
2022-08-25T13:26:22.601Z,36.46
2022-08-25T13:28:57.926Z,37.37
2022-08-25T13:31:29.084Z,38.64
2022-08-25T13:33:58.658Z,39.02
2022-08-25T13:36:51.090Z,39.33
2022-08-25T13:39:45.561Z,39.58
2022-08-25T13:42:14.960Z,40.24
2022-08-25T13:44:41.824Z,39.98
2022-08-25T13:47:43.866Z,39.77
2022-08-25T13:50:20.495Z,39.98
2022-08-25T13:53:02.094Z,40.41
2022-08-25T13:55:50.488Z,39.56
2022-08-25T13:58:24.214Z,38.98
2022-08-25T14:01:02.762Z,39.11
2022-08-25T14:03:49.968Z,38.83
2022-08-25T14:06:16.424Z,39.02
2022-08-25T14:08:45.563Z,39.09
2022-08-25T14:11:30.708Z,39.31
2022-08-25T14:14:01.515Z,39.66
2022-08-25T14:16:33.146Z,39.30
2022-08-25T14:19:01.908Z,38.81
2022-08-25T14:21:30.760Z,38.55
2022-08-25T14:23:57.906Z,38.80
2022-08-25T14:26:26.988Z,38.69
2022-08-25T14:28:53.762Z,37.93
2022-08-25T14:31:20.279Z,37.89
2022-08-25T14:33:56.050Z,37.97
2022-08-25T14:36:22.753Z,38.30
2022-08-25T14:38:54.794Z,37.40
2022-08-25T14:41:23.872Z,35.81
2022-08-25T14:43:50.618Z,34.45
2022-08-25T14:46:20.339Z,33.49
2022-08-25T14:48:52.120Z,32.26
2022-08-25T14:51:18.758Z,31.79
2022-08-25T14:53:47.516Z,31.62
2022-08-25T14:56:14.369Z,31.63
2022-08-25T14:58:50.985Z,30.67
2022-08-25T15:01:28.883Z,31.29
2022-08-25T15:04:08.880Z,32.05
2022-08-25T15:06:36.703Z,31.91
2022-08-25T15:09:08.537Z,31.71
2022-08-25T15:11:36.648Z,31.36
2022-08-25T15:14:10.795Z,31.61
2022-08-25T15:16:40.302Z,30.81
2022-08-25T15:19:11.538Z,29.75
2022-08-25T15:21:38.594Z,29.28
2022-08-25T15:24:07.064Z,29.00
2022-08-25T15:26:39.961Z,28.57
2022-08-25T15:29:06.929Z,28.43
2022-08-25T15:31:35.490Z,27.78
2022-08-25T15:34:02.243Z,27.95
2022-08-25T15:36:29.035Z,27.75
2022-08-25T15:38:55.557Z,27.65
2022-08-25T15:41:23.150Z,27.63
2022-08-25T15:43:54.583Z,27.34
2022-08-25T15:46:24.472Z,27.24
2022-08-25T15:48:51.142Z,26.99
2022-08-25T15:51:18.928Z,27.15
2022-08-25T15:53:46.066Z,27.22
2022-08-25T15:56:26.772Z,27.39
2022-08-25T15:58:55.459Z,27.19
2022-08-25T16:01:26.337Z,27.47
2022-08-25T16:03:53.435Z,27.13
2022-08-25T16:06:20.353Z,26.98
2022-08-25T16:08:48.244Z,26.71
2022-08-25T16:11:19.370Z,26.91
2022-08-25T16:13:47.654Z,26.94
2022-08-25T16:16:16.171Z,26.89
2022-08-25T16:18:43.868Z,27.39
2022-08-25T16:21:12.401Z,27.70
2022-08-25T16:23:40.238Z,27.45
2022-08-25T16:26:09.458Z,27.90
2022-08-25T16:28:37.678Z,28.12
2022-08-25T16:31:05.079Z,28.29
2022-08-25T16:33:32.227Z,28.10
2022-08-25T16:36:10.963Z,27.57
2022-08-25T16:38:38.591Z,27.08
2022-08-25T16:41:09.890Z,27.13
2022-08-25T16:43:37.179Z,26.58
2022-08-25T16:46:07.233Z,26.66
2022-08-25T16:48:34.548Z,26.37
2022-08-25T16:51:12.260Z,25.93
2022-08-25T16:53:57.904Z,25.51
2022-08-25T16:56:27.987Z,25.69
2022-08-25T16:58:56.007Z,25.75
2022-08-25T17:01:25.193Z,25.73
2022-08-25T17:03:53.222Z,25.53
2022-08-25T17:06:20.542Z,25.71
2022-08-25T17:08:50.748Z,25.56
2022-08-25T17:11:19.292Z,25.31
2022-08-25T17:13:49.732Z,24.89
2022-08-25T17:16:17.187Z,24.98
2022-08-25T17:18:47.629Z,24.82
2022-08-25T17:21:24.098Z,24.85
2022-08-25T17:23:51.501Z,24.85
2022-08-25T17:26:18.286Z,24.70
2022-08-25T17:28:45.956Z,24.70
2022-08-25T17:31:14.495Z,24.60
2022-08-25T17:33:41.218Z,24.54
2022-08-25T17:36:08.510Z,24.30
2022-08-25T17:38:36.123Z,24.33
2022-08-25T17:41:06.863Z,24.22
2022-08-25T17:43:37.504Z,23.99
2022-08-25T17:46:04.759Z,23.76
2022-08-25T17:48:33.074Z,23.67
2022-08-25T17:51:00.309Z,23.59
2022-08-25T17:53:27.814Z,23.23
2022-08-25T17:56:00.450Z,23.25
2022-08-25T17:58:28.241Z,22.98
2022-08-25T18:00:55.300Z,23.01
2022-08-25T18:03:21.964Z,22.89
2022-08-25T18:05:49.838Z,22.93
2022-08-25T18:08:18.038Z,22.87
2022-08-25T18:10:47.049Z,22.89
2022-08-25T18:13:14.115Z,22.88
2022-08-25T18:15:42.507Z,22.81
2022-08-25T18:18:09.792Z,22.70
2022-08-25T18:20:39.302Z,22.51
2022-08-25T18:23:09.797Z,22.54
2022-08-25T18:25:36.934Z,22.57
2022-08-25T18:28:09.068Z,22.47
2022-08-25T18:30:36.342Z,22.48
2022-08-25T18:33:02.904Z,22.33
2022-08-25T18:35:29.549Z,22.38
2022-08-25T18:38:14.468Z,22.41
2022-08-25T18:40:42.079Z,22.47
2022-08-25T18:43:14.453Z,22.34
2022-08-25T18:45:44.558Z,22.39
2022-08-25T18:48:11.446Z,22.28
2022-08-25T18:50:40.423Z,22.24
2022-08-25T18:53:08.533Z,22.24
2022-08-25T18:55:36.176Z,22.19
2022-08-25T18:58:03.601Z,22.20
2022-08-25T19:00:31.017Z,22.19
2022-08-25T19:02:59.908Z,22.18
2022-08-25T19:05:32.648Z,21.98
2022-08-25T19:08:06.756Z,21.83
2022-08-25T19:10:34.574Z,21.71
2022-08-25T19:13:07.871Z,21.65
2022-08-25T19:15:36.402Z,21.70
2022-08-25T19:18:06.848Z,21.60
2022-08-25T19:20:36.867Z,21.52
2022-08-25T19:23:03.479Z,21.47
2022-08-25T19:25:34.812Z,21.61
2022-08-25T19:28:05.602Z,21.59
2022-08-25T19:30:34.271Z,21.48
2022-08-25T19:33:01.151Z,21.53
2022-08-25T19:35:44.071Z,21.52
2022-08-25T19:38:33.819Z,21.49
2022-08-25T19:41:00.692Z,21.53
2022-08-25T19:43:27.511Z,21.42
2022-08-25T19:45:54.129Z,21.34
2022-08-25T19:48:20.833Z,21.32
2022-08-25T19:50:48.029Z,21.22
2022-08-25T19:53:22.421Z,21.32
2022-08-25T19:55:49.197Z,21.32
2022-08-25T19:58:16.080Z,21.32
2022-08-25T20:00:47.153Z,21.29
2022-08-25T20:03:17.527Z,21.18
2022-08-25T20:05:44.093Z,21.07
2022-08-25T20:08:10.609Z,20.93
2022-08-25T20:10:41.864Z,20.92
2022-08-25T20:13:08.920Z,20.90
2022-08-25T20:15:37.269Z,20.81
2022-08-25T20:18:06.124Z,20.87
2022-08-25T20:20:34.614Z,20.93
2022-08-25T20:23:21.002Z,20.94
2022-08-25T20:25:50.225Z,20.92
2022-08-25T20:28:18.952Z,20.88
2022-08-25T20:30:45.988Z,20.81
2022-08-25T20:33:13.259Z,20.70
2022-08-25T20:35:47.969Z,20.71
2022-08-25T20:38:14.590Z,20.67
2022-08-25T20:40:41.942Z,20.71
2022-08-25T20:43:10.528Z,20.80
2022-08-25T20:45:39.578Z,20.79
2022-08-25T20:48:06.284Z,20.78
2022-08-25T20:50:33.718Z,20.72
2022-08-25T20:53:00.861Z,20.68
2022-08-25T20:55:27.875Z,20.77
2022-08-25T20:57:56.164Z,20.69
2022-08-25T21:00:24.886Z,20.59
2022-08-25T21:02:52.691Z,20.58
2022-08-25T21:05:19.647Z,20.58
2022-08-25T21:07:46.453Z,20.58
2022-08-25T21:10:15.976Z,20.67
2022-08-25T21:12:43.147Z,20.53
2022-08-25T21:15:10.593Z,20.52
2022-08-25T21:17:37.479Z,20.56
2022-08-25T21:20:08.606Z,20.47
2022-08-25T21:22:36.958Z,20.50
2022-08-25T21:25:04.750Z,20.51
2022-08-25T21:27:31.311Z,20.54
2022-08-25T21:29:57.999Z,20.52
2022-08-25T21:32:24.689Z,20.48
2022-08-25T21:34:53.053Z,20.41
2022-08-25T21:37:20.224Z,20.35
2022-08-25T21:39:46.817Z,20.31
2022-08-25T21:42:13.492Z,20.33
2022-08-25T21:44:40.547Z,20.37
2022-08-25T21:47:07.102Z,20.41
2022-08-25T21:49:37.299Z,20.33
2022-08-25T21:52:04.618Z,20.32
2022-08-25T21:54:31.639Z,20.28
2022-08-25T21:57:00.927Z,20.27
2022-08-25T21:59:29.878Z,20.27
2022-08-25T22:02:00.357Z,20.28
2022-08-25T22:04:27.963Z,20.22
2022-08-25T22:06:54.871Z,20.18
2022-08-25T22:09:24.909Z,20.22
2022-08-25T22:11:54.625Z,20.21
2022-08-25T22:14:21.999Z,20.19
2022-08-25T22:16:48.601Z,20.17
2022-08-25T22:19:15.471Z,20.20
2022-08-25T22:21:43.312Z,20.23
2022-08-25T22:24:10.749Z,20.26
2022-08-25T22:26:38.223Z,20.31
2022-08-25T22:29:05.301Z,20.21
2022-08-25T22:31:33.874Z,20.13
2022-08-25T22:34:01.031Z,20.12
2022-08-25T22:36:35.121Z,20.11
2022-08-25T22:39:03.079Z,20.12
2022-08-25T22:41:31.475Z,20.14
2022-08-25T22:44:00.012Z,20.09
2022-08-25T22:46:32.333Z,20.15
2022-08-25T22:49:00.051Z,20.04
2022-08-25T22:51:31.460Z,20.01
2022-08-25T22:54:02.012Z,20.00
2022-08-25T22:56:34.941Z,20.05
2022-08-25T22:59:08.787Z,20.02
2022-08-25T23:01:36.259Z,19.98
2022-08-25T23:04:04.951Z,19.98
2022-08-25T23:06:31.712Z,20.05
2022-08-25T23:08:58.752Z,20.03
2022-08-25T23:11:25.700Z,19.96
2022-08-25T23:13:56.837Z,19.96
2022-08-25T23:16:24.104Z,20.04
2022-08-25T23:18:51.486Z,19.98
2022-08-25T23:21:37.952Z,19.92
2022-08-25T23:24:10.791Z,19.79
2022-08-25T23:26:42.535Z,19.80
2022-08-25T23:29:18.603Z,19.86
2022-08-25T23:31:46.893Z,19.80
2022-08-25T23:34:15.399Z,19.88
2022-08-25T23:36:43.269Z,19.83
2022-08-25T23:39:11.049Z,19.88
2022-08-25T23:41:37.603Z,19.87
2022-08-25T23:44:05.520Z,19.83
2022-08-25T23:46:35.086Z,19.82
2022-08-25T23:49:02.592Z,19.87
2022-08-25T23:51:37.301Z,19.82
2022-08-25T23:54:07.067Z,19.79
2022-08-25T23:56:36.487Z,19.80
2022-08-25T23:59:04.115Z,19.73
